createdAt,value
2017-08-03T00:02:13.116Z,18.90
2017-08-03T00:04:40.673Z,18.90
2017-08-03T00:07:08.202Z,18.90
2017-08-03T00:09:35.732Z,18.90
2017-08-03T00:12:03.268Z,18.80
2017-08-03T00:14:31.557Z,18.70
2017-08-03T00:16:59.096Z,18.70
2017-08-03T00:19:27.394Z,18.80
2017-08-03T00:21:54.947Z,18.80
2017-08-03T00:24:22.467Z,18.80
2017-08-03T00:26:50.008Z,18.90
2017-08-03T00:29:18.133Z,18.80
2017-08-03T00:31:46.439Z,18.70
2017-08-03T00:34:13.962Z,18.70
2017-08-03T00:36:42.257Z,18.70
2017-08-03T00:39:09.799Z,18.70
2017-08-03T00:41:38.092Z,18.80
2017-08-03T00:44:05.680Z,18.80
2017-08-03T00:46:33.201Z,18.90
2017-08-03T00:49:01.677Z,19.10
2017-08-03T00:51:29.965Z,19.20
2017-08-03T00:53:57.501Z,19.20
2017-08-03T00:56:25.030Z,19.10
2017-08-03T00:58:52.585Z,19.10
2017-08-03T01:01:20.115Z,19.10
2017-08-03T01:03:47.685Z,19.10
2017-08-03T01:06:15.254Z,19.10
2017-08-03T01:08:42.776Z,19.00
2017-08-03T01:11:11.085Z,19.10
2017-08-03T01:13:38.623Z,19.10
2017-08-03T01:16:06.250Z,19.10
2017-08-03T01:18:33.779Z,19.00
2017-08-03T01:21:01.323Z,18.90
2017-08-03T01:23:28.853Z,18.90
2017-08-03T01:25:56.416Z,18.90
2017-08-03T01:28:23.937Z,18.90
2017-08-03T01:30:51.475Z,18.90
2017-08-03T01:33:19.000Z,18.90
2017-08-03T01:35:46.542Z,18.90
2017-08-03T01:38:14.834Z,18.80
2017-08-03T01:40:42.370Z,18.80
2017-08-03T01:43:09.922Z,18.80
2017-08-03T01:45:38.226Z,18.70
2017-08-03T01:48:05.773Z,18.70
2017-08-03T01:50:33.297Z,18.70
2017-08-03T01:53:00.841Z,18.60
2017-08-03T01:55:28.361Z,18.60
2017-08-03T01:57:55.906Z,18.60
2017-08-03T02:00:24.187Z,18.50
2017-08-03T02:02:51.717Z,18.40
2017-08-03T02:05:19.248Z,18.40
2017-08-03T02:07:46.784Z,18.40
2017-08-03T02:10:14.308Z,18.40
2017-08-03T02:12:41.841Z,18.40
2017-08-03T02:15:09.380Z,18.50
2017-08-03T02:17:36.899Z,18.40
2017-08-03T02:20:04.486Z,18.40
2017-08-03T02:22:32.004Z,18.40
2017-08-03T02:24:59.562Z,18.40
2017-08-03T02:27:27.854Z,18.40
2017-08-03T02:29:55.389Z,18.40
2017-08-03T02:32:23.680Z,18.30
2017-08-03T02:34:51.235Z,18.30
2017-08-03T02:37:18.757Z,18.30
2017-08-03T02:39:46.277Z,18.30
2017-08-03T02:42:13.826Z,18.30
2017-08-03T02:44:41.360Z,18.30
2017-08-03T02:47:08.905Z,18.30
2017-08-03T02:49:36.432Z,18.30
2017-08-03T02:52:03.992Z,18.30
2017-08-03T02:54:31.524Z,18.20
2017-08-03T02:56:59.096Z,18.20
2017-08-03T02:59:26.622Z,18.20
2017-08-03T03:01:54.173Z,18.20
2017-08-03T03:04:22.461Z,18.20
2017-08-03T03:06:50.002Z,18.20
2017-08-03T03:09:17.524Z,18.30
2017-08-03T03:11:45.073Z,18.30
2017-08-03T03:14:12.593Z,18.30
2017-08-03T03:16:40.146Z,18.20
2017-08-03T03:19:08.421Z,18.30
2017-08-03T03:21:35.938Z,18.20
2017-08-03T03:24:03.475Z,18.20
2017-08-03T03:26:30.995Z,18.20
2017-08-03T03:28:58.602Z,18.10
2017-08-03T03:31:26.144Z,18.10
2017-08-03T03:33:54.504Z,18.20
2017-08-03T03:36:22.025Z,18.10
2017-08-03T03:38:49.564Z,18.10
2017-08-03T03:41:17.100Z,18.10
2017-08-03T03:43:44.655Z,18.10
2017-08-03T03:46:12.173Z,18.10
2017-08-03T03:48:39.718Z,18.10
2017-08-03T03:51:07.233Z,18.20
2017-08-03T03:53:34.760Z,18.20
2017-08-03T03:56:02.271Z,18.20
2017-08-03T03:58:29.800Z,18.30
2017-08-03T04:00:57.309Z,18.30
2017-08-03T04:03:24.845Z,18.40
2017-08-03T04:05:52.364Z,18.50
2017-08-03T04:08:20.676Z,18.70
2017-08-03T04:10:48.185Z,18.70
2017-08-03T04:13:15.739Z,18.80
2017-08-03T04:15:43.255Z,18.90
2017-08-03T04:18:10.761Z,18.90
2017-08-03T04:20:38.295Z,18.90
2017-08-03T04:23:05.808Z,19.00
2017-08-03T04:25:33.354Z,19.00
2017-08-03T04:28:00.877Z,19.00
2017-08-03T04:30:28.425Z,19.10
2017-08-03T04:32:55.948Z,19.20
2017-08-03T04:35:23.489Z,19.40
2017-08-03T04:37:51.000Z,19.60
2017-08-03T04:40:18.545Z,19.90
2017-08-03T04:42:46.074Z,19.90
2017-08-03T04:45:13.606Z,20.00
2017-08-03T04:47:41.114Z,20.10
2017-08-03T04:50:08.644Z,20.40
2017-08-03T04:52:36.182Z,20.60
2017-08-03T04:55:04.486Z,21.00
2017-08-03T04:57:32.005Z,21.00
2017-08-03T04:59:59.542Z,21.20
2017-08-03T05:02:27.065Z,21.10
2017-08-03T05:04:54.603Z,21.30
2017-08-03T05:07:22.116Z,21.90
2017-08-03T05:09:49.672Z,23.50
2017-08-03T05:12:17.180Z,25.80
2017-08-03T05:14:45.456Z,29.80
2017-08-03T05:17:12.988Z,29.70
2017-08-03T05:19:42.532Z,30.30
2017-08-03T05:22:10.085Z,30.30
2017-08-03T05:24:38.364Z,28.80
2017-08-03T05:27:05.963Z,28.80
2017-08-03T05:29:33.493Z,30.00
2017-08-03T05:32:01.049Z,30.90
2017-08-03T05:34:28.577Z,31.30
2017-08-03T05:36:56.130Z,31.90
2017-08-03T05:39:23.645Z,33.50
2017-08-03T05:41:51.192Z,34.70
2017-08-03T05:44:18.713Z,35.20
2017-08-03T05:46:47.022Z,30.10
2017-08-03T05:49:14.533Z,29.90
2017-08-03T05:51:44.183Z,28.00
2017-08-03T05:54:11.716Z,28.30
2017-08-03T05:56:40.015Z,31.60
2017-08-03T05:59:07.529Z,31.60
2017-08-03T06:01:35.059Z,31.40
2017-08-03T06:04:02.571Z,30.00
2017-08-03T06:06:30.871Z,29.50
2017-08-03T06:08:58.385Z,29.40
2017-08-03T06:11:25.913Z,27.90
2017-08-03T06:13:53.434Z,26.20
2017-08-03T06:16:21.704Z,24.70
2017-08-03T06:18:49.997Z,24.40
2017-08-03T06:21:17.503Z,24.40
2017-08-03T06:23:45.045Z,24.10
2017-08-03T06:26:12.558Z,23.80
2017-08-03T06:28:40.884Z,23.00
2017-08-03T06:31:08.516Z,23.00
2017-08-03T06:33:36.065Z,22.60
2017-08-03T06:36:03.577Z,22.10
2017-08-03T06:38:31.130Z,21.50
2017-08-03T06:40:58.975Z,21.10
2017-08-03T06:43:26.512Z,20.70
2017-08-03T06:45:54.045Z,20.40
2017-08-03T06:48:22.356Z,20.40
2017-08-03T06:50:49.884Z,20.40
2017-08-03T06:53:18.193Z,21.10
2017-08-03T06:55:45.720Z,21.00
2017-08-03T06:58:14.022Z,23.10
2017-08-03T07:00:41.548Z,23.10
2017-08-03T07:03:09.060Z,23.30
2017-08-03T07:05:36.589Z,23.70
2017-08-03T07:08:04.094Z,24.00
2017-08-03T07:10:31.625Z,24.40
2017-08-03T07:12:59.140Z,24.60
2017-08-03T07:15:27.434Z,25.30
2017-08-03T07:17:55.709Z,25.50
2017-08-03T07:20:23.248Z,25.50
2017-08-03T07:22:51.530Z,26.10
2017-08-03T07:25:19.825Z,26.70
2017-08-03T07:27:47.338Z,26.70
2017-08-03T07:30:14.874Z,27.10
2017-08-03T07:32:42.390Z,27.30
2017-08-03T07:35:10.685Z,27.10
2017-08-03T07:37:38.223Z,27.00
2017-08-03T07:40:06.529Z,28.10
2017-08-03T07:42:34.045Z,28.10
2017-08-03T07:45:01.595Z,28.50
2017-08-03T07:47:29.098Z,28.40
2017-08-03T07:49:56.637Z,28.60
2017-08-03T07:52:24.916Z,28.70
2017-08-03T07:54:53.196Z,28.70
2017-08-03T07:57:20.729Z,28.70
2017-08-03T07:59:48.245Z,28.60
2017-08-03T08:02:22.093Z,28.70
2017-08-03T08:04:49.608Z,29.20
2017-08-03T08:07:17.148Z,29.70
2017-08-03T08:09:44.657Z,30.10
2017-08-03T08:12:12.198Z,30.60
2017-08-03T08:14:39.735Z,30.50
2017-08-03T08:17:07.272Z,30.10
2017-08-03T08:19:34.785Z,30.40
2017-08-03T08:22:02.325Z,31.10
2017-08-03T08:24:29.842Z,31.40
2017-08-03T08:26:58.139Z,31.30
2017-08-03T08:29:25.653Z,31.30
2017-08-03T08:31:53.189Z,31.30
2017-08-03T08:34:20.705Z,30.80
2017-08-03T08:36:48.240Z,30.90
2017-08-03T08:39:16.520Z,32.30
2017-08-03T08:41:44.053Z,32.20
2017-08-03T08:44:11.574Z,32.50
2017-08-03T08:46:39.119Z,33.00
2017-08-03T08:49:06.656Z,33.40
2017-08-03T08:51:34.956Z,32.70
2017-08-03T08:54:02.465Z,32.70
2017-08-03T08:56:30.004Z,32.40
2017-08-03T08:58:57.556Z,32.40
2017-08-03T09:01:25.082Z,32.20
2017-08-03T09:03:52.621Z,31.50
2017-08-03T09:06:20.901Z,31.40
2017-08-03T09:08:49.200Z,32.20
2017-08-03T09:11:16.718Z,32.20
2017-08-03T09:13:44.711Z,32.60
2017-08-03T09:16:12.985Z,33.50
2017-08-03T09:18:40.524Z,33.40
2017-08-03T09:21:08.045Z,34.10
2017-08-03T09:23:35.589Z,34.20
2017-08-03T09:26:03.098Z,34.20
2017-08-03T09:28:30.670Z,34.10
2017-08-03T09:30:58.206Z,34.20
2017-08-03T09:33:26.485Z,34.70
2017-08-03T09:35:54.020Z,34.20
2017-08-03T09:38:21.549Z,34.00
2017-08-03T09:40:49.069Z,33.80
2017-08-03T09:43:16.593Z,33.60
2017-08-03T09:45:44.110Z,33.50
2017-08-03T09:48:12.385Z,32.90
2017-08-03T09:50:39.925Z,32.90
2017-08-03T09:53:07.440Z,33.50
2017-08-03T09:55:34.976Z,34.00
2017-08-03T09:58:02.500Z,34.00
2017-08-03T10:00:30.053Z,33.90
2017-08-03T10:02:57.569Z,33.30
2017-08-03T10:05:25.109Z,33.10
2017-08-03T10:07:52.627Z,32.90
2017-08-03T10:10:20.153Z,32.60
2017-08-03T10:12:47.672Z,32.70
2017-08-03T10:15:15.200Z,32.40
2017-08-03T10:17:42.705Z,32.30
2017-08-03T10:20:10.253Z,32.30
2017-08-03T10:22:37.789Z,32.10
2017-08-03T10:25:06.134Z,31.20
2017-08-03T10:27:33.651Z,31.10
2017-08-03T10:30:01.236Z,30.30
2017-08-03T10:32:28.782Z,29.80
2017-08-03T10:34:56.336Z,29.50
2017-08-03T10:37:23.882Z,29.40
2017-08-03T10:39:51.476Z,29.30
2017-08-03T10:42:19.022Z,29.10
2017-08-03T10:44:46.565Z,28.90
2017-08-03T10:47:14.091Z,28.50
2017-08-03T10:49:41.657Z,28.40
2017-08-03T10:52:09.960Z,28.30
2017-08-03T10:54:37.579Z,28.30
2017-08-03T10:57:05.905Z,28.50
2017-08-03T10:59:33.432Z,28.50
2017-08-03T11:02:00.981Z,28.50
2017-08-03T11:04:28.484Z,28.40
2017-08-03T11:06:56.035Z,28.60
2017-08-03T11:09:23.561Z,29.20
2017-08-03T11:11:51.106Z,29.70
2017-08-03T11:14:18.608Z,30.30
2017-08-03T11:16:46.154Z,30.50
2017-08-03T11:19:14.505Z,30.20
2017-08-03T11:21:42.812Z,31.10
2017-08-03T11:24:10.337Z,31.00
2017-08-03T11:26:38.777Z,33.40
2017-08-03T11:29:06.295Z,33.40
2017-08-03T11:31:34.652Z,34.10
2017-08-03T11:34:02.991Z,34.70
2017-08-03T11:36:30.728Z,34.70
2017-08-03T11:38:58.350Z,34.90
2017-08-03T11:41:25.885Z,34.90
2017-08-03T11:43:53.412Z,34.70
2017-08-03T11:46:20.955Z,34.60
2017-08-03T11:48:49.243Z,35.10
2017-08-03T11:51:16.773Z,35.10
2017-08-03T11:53:44.304Z,35.10
2017-08-03T11:56:11.862Z,35.10
2017-08-03T11:58:39.405Z,35.00
2017-08-03T12:01:06.931Z,34.60
2017-08-03T12:03:34.462Z,34.60
2017-08-03T12:06:01.989Z,34.20
2017-08-03T12:08:29.555Z,34.00
2017-08-03T12:10:57.069Z,34.30
2017-08-03T12:13:24.600Z,34.50
2017-08-03T12:15:52.125Z,35.30
2017-08-03T12:18:19.684Z,36.00
2017-08-03T12:20:47.209Z,36.40
2017-08-03T12:23:14.734Z,35.70
2017-08-03T12:25:42.253Z,35.20
2017-08-03T12:28:09.784Z,35.00
2017-08-03T12:30:37.304Z,35.00
2017-08-03T12:33:04.856Z,34.80
2017-08-03T12:35:32.393Z,34.40
2017-08-03T12:37:59.929Z,34.30
2017-08-03T12:40:27.498Z,33.90
2017-08-03T12:42:55.057Z,33.70
2017-08-03T12:45:22.762Z,33.30
2017-08-03T12:47:50.366Z,33.50
2017-08-03T12:50:17.870Z,33.80
2017-08-03T12:52:45.461Z,34.10
2017-08-03T12:55:13.017Z,34.10
2017-08-03T12:57:41.309Z,33.70
2017-08-03T13:00:09.052Z,33.70
2017-08-03T13:02:36.684Z,33.60
2017-08-03T13:05:04.312Z,33.50
2017-08-03T13:07:31.973Z,33.20
2017-08-03T13:09:59.505Z,32.90
2017-08-03T13:12:27.075Z,32.10
2017-08-03T13:14:54.732Z,31.00
2017-08-03T13:17:22.319Z,29.30
2017-08-03T13:19:49.978Z,27.40
2017-08-03T13:22:17.526Z,26.90
2017-08-03T13:24:45.637Z,26.80
2017-08-03T13:27:13.249Z,27.10
2017-08-03T13:29:40.916Z,27.60
2017-08-03T13:32:11.822Z,28.10
2017-08-03T13:34:39.431Z,28.50
2017-08-03T13:37:06.944Z,29.30
2017-08-03T13:39:34.474Z,29.90
2017-08-03T13:42:01.993Z,30.10
2017-08-03T13:44:29.563Z,30.00
2017-08-03T13:46:57.090Z,29.60
2017-08-03T13:49:25.598Z,29.00
2017-08-03T13:51:53.179Z,29.00
2017-08-03T13:54:20.725Z,29.10
2017-08-03T13:56:48.288Z,29.50
2017-08-03T13:59:15.805Z,30.00
2017-08-03T14:01:44.111Z,30.40
2017-08-03T14:04:11.645Z,30.40
2017-08-03T14:06:39.210Z,30.60
2017-08-03T14:09:06.729Z,30.80
2017-08-03T14:11:34.245Z,30.70
2017-08-03T14:14:01.788Z,30.50
2017-08-03T14:16:29.297Z,30.20
2017-08-03T14:18:56.829Z,30.20
2017-08-03T14:21:24.352Z,30.20
2017-08-03T14:23:52.660Z,30.10
2017-08-03T14:26:20.181Z,30.10
2017-08-03T14:28:48.500Z,30.50
2017-08-03T14:31:16.015Z,30.50
2017-08-03T14:33:44.294Z,30.90
2017-08-03T14:36:12.610Z,31.00
2017-08-03T14:38:40.126Z,31.00
2017-08-03T14:41:08.461Z,31.20
2017-08-03T14:43:35.995Z,31.10
2017-08-03T14:46:03.531Z,31.00
2017-08-03T14:48:31.818Z,30.70
2017-08-03T14:50:59.366Z,30.70
2017-08-03T14:53:27.653Z,30.10
2017-08-03T14:55:55.190Z,30.10
2017-08-03T14:58:23.487Z,29.40
2017-08-03T15:00:51.008Z,29.40
2017-08-03T15:03:18.540Z,29.10
2017-08-03T15:05:46.063Z,28.70
2017-08-03T15:08:13.605Z,28.30
2017-08-03T15:10:41.922Z,28.00
2017-08-03T15:13:09.480Z,28.00
2017-08-03T15:15:36.984Z,27.90
2017-08-03T15:18:04.524Z,27.60
2017-08-03T15:20:32.038Z,27.30
2017-08-03T15:22:59.593Z,27.10
2017-08-03T15:25:27.113Z,26.80
2017-08-03T15:27:54.637Z,26.70
2017-08-03T15:30:22.177Z,26.60
2017-08-03T15:32:49.701Z,26.50
2017-08-03T15:35:17.997Z,26.60
2017-08-03T15:37:45.519Z,26.60
2017-08-03T15:40:13.049Z,26.80
2017-08-03T15:42:40.569Z,27.10
2017-08-03T15:45:08.857Z,28.40
2017-08-03T15:47:36.364Z,28.40
2017-08-03T15:50:03.906Z,28.70
2017-08-03T15:52:31.429Z,28.80
2017-08-03T15:54:58.953Z,29.00
2017-08-03T15:57:26.478Z,29.20
2017-08-03T15:59:54.004Z,29.30
2017-08-03T16:02:21.539Z,29.40
2017-08-03T16:04:49.050Z,29.30
2017-08-03T16:07:16.600Z,29.20
2017-08-03T16:09:44.121Z,29.30
2017-08-03T16:12:11.655Z,29.30
2017-08-03T16:14:39.171Z,29.30
2017-08-03T16:17:06.720Z,29.30
2017-08-03T16:19:34.243Z,29.30
2017-08-03T16:22:01.764Z,29.30
2017-08-03T16:24:29.312Z,29.30
2017-08-03T16:26:56.825Z,29.20
2017-08-03T16:29:25.122Z,29.00
2017-08-03T16:31:52.643Z,29.00
2017-08-03T16:34:20.190Z,29.00
2017-08-03T16:36:47.710Z,29.10
2017-08-03T16:39:15.244Z,29.10
2017-08-03T16:41:42.754Z,29.00
2017-08-03T16:44:10.298Z,28.90
2017-08-03T16:46:37.816Z,28.80
2017-08-03T16:49:06.101Z,28.60
2017-08-03T16:51:34.442Z,28.60
2017-08-03T16:54:01.970Z,28.50
2017-08-03T16:56:29.511Z,28.50
2017-08-03T16:58:57.029Z,28.30
2017-08-03T17:01:24.562Z,28.20
2017-08-03T17:03:52.088Z,28.10
2017-08-03T17:06:19.679Z,28.00
2017-08-03T17:08:47.203Z,28.00
2017-08-03T17:11:14.758Z,28.10
2017-08-03T17:13:42.293Z,28.00
2017-08-03T17:16:10.569Z,27.80
2017-08-03T17:18:38.895Z,27.70
2017-08-03T17:21:06.417Z,27.70
2017-08-03T17:23:34.715Z,27.60
2017-08-03T17:26:02.318Z,27.60
2017-08-03T17:28:29.861Z,27.70
2017-08-03T17:30:57.378Z,27.80
2017-08-03T17:33:24.917Z,28.00
2017-08-03T17:35:52.474Z,28.10
2017-08-03T17:38:20.007Z,28.20
2017-08-03T17:40:47.521Z,28.30
2017-08-03T17:43:15.070Z,28.30
2017-08-03T17:45:42.606Z,28.20
2017-08-03T17:48:10.913Z,27.90
2017-08-03T17:50:38.457Z,27.90
2017-08-03T17:53:06.736Z,27.50
2017-08-03T17:55:35.031Z,27.40
2017-08-03T17:58:02.571Z,27.30
2017-08-03T18:00:30.143Z,27.30
2017-08-03T18:02:57.651Z,27.10
2017-08-03T18:05:25.186Z,27.00
2017-08-03T18:07:52.708Z,26.90
2017-08-03T18:10:21.012Z,26.70
2017-08-03T18:12:48.585Z,26.70
2017-08-03T18:15:16.116Z,26.60
2017-08-03T18:17:43.644Z,26.40
2017-08-03T18:20:11.918Z,26.10
2017-08-03T18:22:39.464Z,26.00
2017-08-03T18:25:07.024Z,25.80
2017-08-03T18:27:34.588Z,25.60
2017-08-03T18:30:02.131Z,25.50
2017-08-03T18:32:29.730Z,25.40
2017-08-03T18:34:58.029Z,25.10
2017-08-03T18:37:25.557Z,25.10
2017-08-03T18:39:53.897Z,24.90
2017-08-03T18:42:21.412Z,24.90
2017-08-03T18:44:48.957Z,24.80
2017-08-03T18:47:17.250Z,24.50
2017-08-03T18:49:44.796Z,24.50
2017-08-03T18:52:12.322Z,24.30
2017-08-03T18:54:39.886Z,24.20
2017-08-03T18:57:07.409Z,24.10
2017-08-03T18:59:34.972Z,24.00
2017-08-03T19:02:02.582Z,23.80
2017-08-03T19:04:30.868Z,23.50
2017-08-03T19:06:58.405Z,23.50
2017-08-03T19:09:25.933Z,23.40
2017-08-03T19:11:53.477Z,23.40
2017-08-03T19:14:21.001Z,23.30
2017-08-03T19:16:49.309Z,23.30
2017-08-03T19:19:18.802Z,23.20
2017-08-03T19:21:46.326Z,23.30
2017-08-03T19:24:14.642Z,23.20
2017-08-03T19:26:42.167Z,23.20
2017-08-03T19:29:09.707Z,23.20
2017-08-03T19:31:37.281Z,23.20
2017-08-03T19:34:04.817Z,23.10
2017-08-03T19:36:35.554Z,23.10
2017-08-03T19:39:03.093Z,23.00
2017-08-03T19:41:30.649Z,22.90
2017-08-03T19:43:58.174Z,22.80
2017-08-03T19:46:25.702Z,22.80
2017-08-03T19:48:53.281Z,22.70
2017-08-03T19:51:20.854Z,22.70
2017-08-03T19:53:48.463Z,22.60
2017-08-03T19:56:16.023Z,22.50
2017-08-03T19:58:46.597Z,22.40
2017-08-03T20:01:14.191Z,22.40
2017-08-03T20:03:41.710Z,22.40
2017-08-03T20:06:09.288Z,22.40
2017-08-03T20:08:38.764Z,22.30
2017-08-03T20:11:16.453Z,22.20
2017-08-03T20:13:44.746Z,22.20
2017-08-03T20:16:13.046Z,22.10
2017-08-03T20:18:40.563Z,22.10
2017-08-03T20:21:08.860Z,22.00
2017-08-03T20:23:36.453Z,22.00
2017-08-03T20:26:03.971Z,22.00
2017-08-03T20:28:32.285Z,22.00
2017-08-03T20:30:59.817Z,22.00
2017-08-03T20:33:27.365Z,22.00
2017-08-03T20:35:55.642Z,21.90
2017-08-03T20:38:23.240Z,21.90
2017-08-03T20:40:51.150Z,21.90
2017-08-03T20:43:18.689Z,21.80
2017-08-03T20:45:46.192Z,21.90
2017-08-03T20:48:15.397Z,21.90
2017-08-03T20:50:42.921Z,21.90
2017-08-03T20:53:10.449Z,21.90
2017-08-03T20:55:37.984Z,21.90
2017-08-03T20:58:05.519Z,21.90
2017-08-03T21:00:33.832Z,21.90
2017-08-03T21:03:01.362Z,21.80
2017-08-03T21:05:28.916Z,21.80
2017-08-03T21:07:57.200Z,21.70
2017-08-03T21:10:24.725Z,21.70
2017-08-03T21:12:52.277Z,21.70
2017-08-03T21:15:19.800Z,21.60
2017-08-03T21:17:47.349Z,21.60
2017-08-03T21:20:14.870Z,21.60
2017-08-03T21:22:43.233Z,21.40
2017-08-03T21:25:10.752Z,21.40
2017-08-03T21:27:38.276Z,21.40
2017-08-03T21:30:05.784Z,21.30
2017-08-03T21:32:33.337Z,21.30
2017-08-03T21:35:00.852Z,21.30
2017-08-03T21:37:28.365Z,21.30
2017-08-03T21:39:55.916Z,21.30
2017-08-03T21:42:23.444Z,21.40
2017-08-03T21:44:50.978Z,21.40
2017-08-03T21:47:18.493Z,21.40
2017-08-03T21:49:46.035Z,21.40
2017-08-03T21:52:13.556Z,21.40
2017-08-03T21:54:41.861Z,21.30
2017-08-03T21:57:09.400Z,21.30
2017-08-03T21:59:36.972Z,21.30
2017-08-03T22:02:04.560Z,21.30
2017-08-03T22:04:32.105Z,21.30
2017-08-03T22:06:59.619Z,21.20
2017-08-03T22:09:27.174Z,21.10
2017-08-03T22:11:54.722Z,21.10
2017-08-03T22:14:22.256Z,21.20
2017-08-03T22:16:49.787Z,21.10
2017-08-03T22:19:17.296Z,21.10
2017-08-03T22:21:44.824Z,21.10
2017-08-03T22:24:12.352Z,21.10
2017-08-03T22:26:39.911Z,21.10
2017-08-03T22:29:08.197Z,21.20
2017-08-03T22:31:35.744Z,21.20
2017-08-03T22:34:03.257Z,21.30
2017-08-03T22:36:30.782Z,21.30
2017-08-03T22:38:58.333Z,21.20
2017-08-03T22:41:25.854Z,21.20
2017-08-03T22:43:53.427Z,21.10
2017-08-03T22:46:20.967Z,21.10
2017-08-03T22:48:48.516Z,21.00
2017-08-03T22:51:16.033Z,21.00
2017-08-03T22:53:43.594Z,21.00
2017-08-03T22:56:11.108Z,20.90
2017-08-03T22:58:38.628Z,20.90
2017-08-03T23:01:06.176Z,20.80
2017-08-03T23:03:33.680Z,20.80
2017-08-03T23:06:01.224Z,20.80
2017-08-03T23:08:28.741Z,20.80
2017-08-03T23:10:56.280Z,20.70
2017-08-03T23:13:23.797Z,20.70
2017-08-03T23:15:51.356Z,20.80
2017-08-03T23:18:18.878Z,20.80
2017-08-03T23:20:46.393Z,20.80
2017-08-03T23:23:13.928Z,20.80
2017-08-03T23:25:41.445Z,20.80
2017-08-03T23:28:08.999Z,20.80
2017-08-03T23:30:36.513Z,20.80
2017-08-03T23:33:04.105Z,20.90
2017-08-03T23:35:31.630Z,20.90
2017-08-03T23:38:01.190Z,20.90
2017-08-03T23:40:28.709Z,21.00
2017-08-03T23:42:56.277Z,20.90
2017-08-03T23:45:24.565Z,20.90
2017-08-03T23:47:52.856Z,20.90
2017-08-03T23:50:20.417Z,20.90
2017-08-03T23:52:47.993Z,20.90
2017-08-03T23:55:15.544Z,20.90
2017-08-03T23:57:43.061Z,20.90
